Time;durP1;ratioP1;P1;durP2;ratioP2;P2;SDS_P1;SDS_P2;PMS_P1;PMS_P2;Temp;Humidity;BMP_temperature;BMP_pressure;BME280_temperature;BME280_humidity;BME280_pressure;Samples;Min_cycle;Max_cycle;Signal;HPM_P1;HPM_P2
2023/03/16 00:01:45;;;;;;;22.13;20.80;;;;;;;;;;5061777;28;20212;-86
2023/03/16 00:04:13;;;;;;;21.92;20.35;;;;;;;;;;5062111;28;20223;-86
2023/03/16 00:06:40;;;;;;;22.60;21.23;;;;;;;;;;5061014;28;20211;-86
2023/03/16 00:09:08;;;;;;;22.30;20.80;;;;;;;;;;5061117;28;20242;-86
2023/03/16 00:11:36;;;;;;;21.40;20.15;;;;;;;;;;5061413;28;20204;-85
2023/03/16 00:14:03;;;;;;;21.33;20.05;;;;;;;;;;5061057;28;20199;-86
2023/03/16 00:16:30;;;;;;;22.30;20.90;;;;;;;;;;5060331;28;20290;-86
2023/03/16 00:18:58;;;;;;;21.52;20.33;;;;;;;;;;5059869;28;20880;-85
2023/03/16 00:21:25;;;;;;;21.60;20.30;;;;;;;;;;5060705;28;20202;-86
2023/03/16 00:23:52;;;;;;;22.58;20.88;;;;;;;;;;5060652;28;20274;-86
2023/03/16 00:26:21;;;;;;;21.15;19.80;;;;;;;;;;5061502;28;20291;-86
2023/03/16 00:28:48;;;;;;;22.60;20.85;;;;;;;;;;5062448;28;20220;-86
2023/03/16 00:31:15;;;;;;;22.58;21.17;;;;;;;;;;5061712;28;20208;-85
2023/03/16 00:33:42;;;;;;;22.00;20.80;;;;;;;;;;5061971;28;20727;-85
2023/03/16 00:36:10;;;;;;;21.85;20.55;;;;;;;;;;5060997;28;20200;-85
2023/03/16 00:38:38;;;;;;;21.75;20.45;;;;;;;;;;5062351;28;20244;-86
2023/03/16 00:41:06;;;;;;;23.23;21.73;;;;;;;;;;5064246;28;20204;-86
2023/03/16 00:43:39;;;;;;;22.48;20.90;;;;;;;;;;5061093;28;20631;-86
2023/03/16 00:46:07;;;;;;;21.63;20.23;;;;;;;;;;5061623;28;20216;-86
2023/03/16 00:48:34;;;;;;;21.95;20.65;;;;;;;;;;5061504;28;20220;-86
2023/03/16 00:51:03;;;;;;;22.08;20.67;;;;;;;;;;5061098;28;20216;-86
2023/03/16 00:53:30;;;;;;;21.75;20.45;;;;;;;;;;5061576;28;20201;-85
2023/03/16 00:55:57;;;;;;;22.40;21.10;;;;;;;;;;5061616;28;20200;-86
2023/03/16 00:58:25;;;;;;;21.38;20.17;;;;;;;;;;5061030;28;20764;-86
2023/03/16 01:00:54;;;;;;;22.23;20.85;;;;;;;;;;5061201;28;20609;-86
2023/03/16 01:03:21;;;;;;;23.08;21.02;;;;;;;;;;5061528;28;20215;-86
2023/03/16 01:05:48;;;;;;;22.77;21.10;;;;;;;;;;5059446;28;20225;-86
2023/03/16 01:08:15;;;;;;;21.42;20.13;;;;;;;;;;5060888;28;20216;-86
2023/03/16 01:10:44;;;;;;;22.95;21.40;;;;;;;;;;5061692;28;20280;-86
2023/03/16 01:13:11;;;;;;;22.42;21.02;;;;;;;;;;5060776;28;20292;-86
2023/03/16 01:15:38;;;;;;;23.15;21.70;;;;;;;;;;5060986;28;20207;-85
2023/03/16 01:18:07;;;;;;;22.55;21.08;;;;;;;;;;5061734;28;20277;-86
2023/03/16 01:20:34;;;;;;;22.30;20.58;;;;;;;;;;5061431;28;20204;-86
2023/03/16 01:23:01;;;;;;;22.42;20.90;;;;;;;;;;5061710;28;20626;-85
2023/03/16 01:25:28;;;;;;;22.02;20.55;;;;;;;;;;5061275;28;20303;-86
2023/03/16 01:27:55;;;;;;;21.55;20.30;;;;;;;;;;5061967;28;20232;-86
2023/03/16 01:30:22;;;;;;;22.25;20.30;;;;;;;;;;5062999;28;20628;-86
2023/03/16 01:32:49;;;;;;;23.45;21.92;;;;;;;;;;5061971;28;20208;-86
2023/03/16 01:35:20;;;;;;;23.00;21.50;;;;;;;;;;5062743;28;20211;-86
2023/03/16 01:37:47;;;;;;;22.70;21.30;;;;;;;;;;5061091;28;20224;-86
2023/03/16 01:40:14;;;;;;;22.17;20.55;;;;;;;;;;5060326;28;20666;-86
2023/03/16 01:42:42;;;;;;;21.90;20.50;;;;;;;;;;5059391;28;20213;-86
2023/03/16 01:45:24;;;;;;;24.00;22.42;;;;;;;;;;5060757;28;20216;-86
2023/03/16 01:47:51;;;;;;;22.70;21.15;;;;;;;;;;5061104;28;20236;-85
2023/03/16 01:50:21;;;;;;;22.60;21.20;;;;;;;;;;5062386;28;20218;-86
2023/03/16 01:52:48;;;;;;;22.52;20.95;;;;;;;;;;5061363;28;20238;-86
2023/03/16 01:55:15;;;;;;;22.23;20.83;;;;;;;;;;5061932;28;20230;-86
2023/03/16 01:57:44;;;;;;;21.63;20.02;;;;;;;;;;5062812;28;21065;-86
2023/03/16 02:00:17;;;;;;;22.40;20.88;;;;;;;;;;5063214;28;20254;-86
2023/03/16 02:02:47;;;;;;;22.23;20.83;;;;;;;;;;5061740;28;20215;-86
2023/03/16 02:05:16;;;;;;;21.70;20.45;;;;;;;;;;5060520;28;20220;-86
2023/03/16 02:07:47;;;;;;;21.42;20.08;;;;;;;;;;5061293;28;20232;-86
2023/03/16 02:10:15;;;;;;;21.42;20.23;;;;;;;;;;5061709;28;20196;-86
2023/03/16 02:12:43;;;;;;;22.15;20.65;;;;;;;;;;5061749;28;20659;-86
2023/03/16 02:15:11;;;;;;;22.73;21.15;;;;;;;;;;5061300;28;20207;-86
2023/03/16 02:17:38;;;;;;;22.30;20.60;;;;;;;;;;5062673;28;20195;-86
2023/03/16 02:20:13;;;;;;;22.33;20.90;;;;;;;;;;5065535;28;20215;-86
2023/03/16 02:22:42;;;;;;;21.92;20.40;;;;;;;;;;5065849;28;20208;-86
2023/03/16 02:25:11;;;;;;;22.77;20.75;;;;;;;;;;5065510;28;20282;-86
2023/03/16 02:27:41;;;;;;;22.15;20.50;;;;;;;;;;5064830;28;20227;-86
2023/03/16 02:30:11;;;;;;;21.33;19.98;;;;;;;;;;5065402;28;20186;-85
2023/03/16 02:32:39;;;;;;;21.70;20.40;;;;;;;;;;5065078;28;20226;-86
2023/03/16 02:35:06;;;;;;;22.17;20.33;;;;;;;;;;5064909;28;20239;-86
2023/03/16 02:37:34;;;;;;;22.30;20.73;;;;;;;;;;5065138;28;20219;-86
2023/03/16 02:40:02;;;;;;;23.08;21.25;;;;;;;;;;5065033;28;20216;-86
2023/03/16 02:42:30;;;;;;;21.98;20.58;;;;;;;;;;5064882;28;20227;-86
2023/03/16 02:44:58;;;;;;;22.63;21.00;;;;;;;;;;5064698;28;20209;-85
2023/03/16 02:47:29;;;;;;;22.13;20.77;;;;;;;;;;5064082;28;20193;-86
2023/03/16 02:49:57;;;;;;;22.02;20.48;;;;;;;;;;5063474;28;20214;-85
2023/03/16 02:52:24;;;;;;;20.80;19.50;;;;;;;;;;5062681;28;20257;-86
2023/03/16 02:54:51;;;;;;;21.55;20.25;;;;;;;;;;5064073;28;20199;-86
2023/03/16 02:57:18;;;;;;;22.73;21.23;;;;;;;;;;5062561;28;20285;-86
2023/03/16 02:59:45;;;;;;;22.50;20.77;;;;;;;;;;5063031;28;20216;-86
2023/03/16 03:02:12;;;;;;;22.08;20.63;;;;;;;;;;5063028;28;20604;-85
2023/03/16 03:04:41;;;;;;;21.20;19.80;;;;;;;;;;5062947;28;20200;-86
2023/03/16 03:07:08;;;;;;;21.80;20.30;;;;;;;;;;5061454;28;20289;-86
2023/03/16 03:09:35;;;;;;;21.83;20.30;;;;;;;;;;5061809;28;20232;-86
2023/03/16 03:12:02;;;;;;;22.30;20.88;;;;;;;;;;5061612;28;20253;-86
2023/03/16 03:14:29;;;;;;;20.85;19.65;;;;;;;;;;5062308;28;20204;-85
2023/03/16 03:16:56;;;;;;;21.40;20.05;;;;;;;;;;5060928;28;20212;-86
2023/03/16 03:19:23;;;;;;;21.30;19.80;;;;;;;;;;5060838;28;20224;-86
2023/03/16 03:21:55;;;;;;;21.25;19.90;;;;;;;;;;5058868;28;20549;-86
2023/03/16 03:24:23;;;;;;;21.65;20.35;;;;;;;;;;5060148;28;20299;-86
2023/03/16 03:26:50;;;;;;;22.30;20.67;;;;;;;;;;5058371;28;20229;-86
2023/03/16 03:29:17;;;;;;;21.40;20.15;;;;;;;;;;5058161;28;20255;-86
2023/03/16 03:31:44;;;;;;;21.80;20.35;;;;;;;;;;5059117;28;20208;-86
2023/03/16 03:34:11;;;;;;;21.15;19.95;;;;;;;;;;5059262;28;20204;-86
2023/03/16 03:36:38;;;;;;;21.80;20.40;;;;;;;;;;5057351;28;20199;-85
2023/03/16 03:39:07;;;;;;;21.20;19.80;;;;;;;;;;5058680;28;20224;-86
2023/03/16 03:41:34;;;;;;;20.65;19.50;;;;;;;;;;5059619;28;20200;-86
2023/03/16 03:44:01;;;;;;;20.70;19.50;;;;;;;;;;5060632;28;20592;-86
2023/03/16 03:46:28;;;;;;;21.95;20.30;;;;;;;;;;5058189;28;20213;-86
2023/03/16 03:49:00;;;;;;;21.58;19.92;;;;;;;;;;5057884;28;20226;-86
2023/03/16 03:51:27;;;;;;;20.35;19.15;;;;;;;;;;5058709;28;20242;-86
2023/03/16 03:53:55;;;;;;;21.08;19.75;;;;;;;;;;5058693;28;20204;-86
2023/03/16 03:56:23;;;;;;;21.10;19.45;;;;;;;;;;5057959;28;20227;-86
2023/03/16 03:58:50;;;;;;;20.95;19.55;;;;;;;;;;5057386;28;20283;-86
2023/03/16 04:01:17;;;;;;;21.10;19.77;;;;;;;;;;5058311;28;20209;-86
2023/03/16 04:03:44;;;;;;;21.85;20.65;;;;;;;;;;5058989;28;20256;-85
2023/03/16 04:06:11;;;;;;;22.48;20.40;;;;;;;;;;5058059;28;20691;-85
2023/03/16 04:08:38;;;;;;;22.02;20.55;;;;;;;;;;5057742;28;20240;-85
2023/03/16 04:11:05;;;;;;;20.50;19.30;;;;;;;;;;5057929;28;20201;-85
2023/03/16 04:13:34;;;;;;;21.20;19.80;;;;;;;;;;5058591;28;20212;-85
2023/03/16 04:16:02;;;;;;;21.45;20.17;;;;;;;;;;5058509;28;20197;-85
2023/03/16 04:18:29;;;;;;;21.85;20.23;;;;;;;;;;5058015;28;20228;-85
2023/03/16 04:20:56;;;;;;;23.52;21.83;;;;;;;;;;5057500;28;20207;-88
2023/03/16 04:23:24;;;;;;;22.35;20.90;;;;;;;;;;5058587;28;20204;-85
2023/03/16 04:25:51;;;;;;;21.85;20.40;;;;;;;;;;5058408;28;20244;-86
2023/03/16 04:28:18;;;;;;;22.33;21.02;;;;;;;;;;5057138;28;20286;-85
2023/03/16 04:30:47;;;;;;;22.95;21.65;;;;;;;;;;5058746;28;20189;-86
2023/03/16 04:33:14;;;;;;;23.80;22.20;;;;;;;;;;5058166;28;20250;-86
2023/03/16 04:35:42;;;;;;;21.92;20.73;;;;;;;;;;5057817;28;20227;-85
2023/03/16 04:38:10;;;;;;;22.15;20.80;;;;;;;;;;5057894;28;20220;-86
2023/03/16 04:40:38;;;;;;;22.80;21.30;;;;;;;;;;5057567;28;20238;-85
2023/03/16 04:43:05;;;;;;;24.30;22.38;;;;;;;;;;5058150;28;20619;-88
2023/03/16 04:45:32;;;;;;;22.50;20.90;;;;;;;;;;5057432;28;20200;-86
2023/03/16 04:48:00;;;;;;;22.73;21.05;;;;;;;;;;5056841;28;20755;-86
2023/03/16 04:50:27;;;;;;;22.15;20.73;;;;;;;;;;5058307;28;20204;-86
2023/03/16 04:52:54;;;;;;;22.45;20.95;;;;;;;;;;5058274;28;20200;-86
2023/03/16 04:55:21;;;;;;;22.10;20.80;;;;;;;;;;5056361;28;20212;-86
2023/03/16 04:57:48;;;;;;;23.10;21.45;;;;;;;;;;5056974;28;20224;-86
2023/03/16 05:00:18;;;;;;;22.80;21.00;;;;;;;;;;5056981;28;20734;-88
2023/03/16 05:02:45;;;;;;;22.70;21.30;;;;;;;;;;5057834;28;20208;-86
2023/03/16 05:05:13;;;;;;;22.60;21.17;;;;;;;;;;5058025;28;20202;-85
2023/03/16 05:07:41;;;;;;;22.23;20.65;;;;;;;;;;5057728;28;20255;-85
2023/03/16 05:10:09;;;;;;;21.77;20.38;;;;;;;;;;5055929;28;20204;-86
2023/03/16 05:12:36;;;;;;;22.15;20.40;;;;;;;;;;5056329;28;20196;-88
2023/03/16 05:15:03;;;;;;;22.10;20.60;;;;;;;;;;5055587;28;20735;-87
2023/03/16 05:17:30;;;;;;;22.40;20.80;;;;;;;;;;5055291;28;20201;-87
2023/03/16 05:19:57;;;;;;;22.73;21.23;;;;;;;;;;5055449;28;20267;-85
2023/03/16 05:22:25;;;;;;;23.30;21.80;;;;;;;;;;5056110;28;20192;-87
2023/03/16 05:24:52;;;;;;;22.70;21.10;;;;;;;;;;5055500;28;20221;-88
2023/03/16 05:27:20;;;;;;;22.38;21.08;;;;;;;;;;5054932;28;20218;-87
2023/03/16 05:29:47;;;;;;;23.33;21.83;;;;;;;;;;5055428;28;20204;-86
2023/03/16 05:32:15;;;;;;;21.70;20.45;;;;;;;;;;5054875;28;20212;-88
2023/03/16 05:34:43;;;;;;;23.90;21.95;;;;;;;;;;5056753;28;20265;-88
2023/03/16 05:37:10;;;;;;;21.58;20.15;;;;;;;;;;5055339;28;20609;-86
2023/03/16 05:39:38;;;;;;;22.63;21.15;;;;;;;;;;5055821;28;20555;-85
2023/03/16 05:42:05;;;;;;;23.60;22.10;;;;;;;;;;5055657;28;20733;-86
2023/03/16 05:44:33;;;;;;;23.20;21.40;;;;;;;;;;5056606;28;20213;-86
2023/03/16 05:47:00;;;;;;;23.30;21.70;;;;;;;;;;5056493;28;20224;-85
2023/03/16 05:49:27;;;;;;;23.30;21.75;;;;;;;;;;5055781;28;20274;-85
2023/03/16 05:51:54;;;;;;;23.42;21.70;;;;;;;;;;5055506;28;20250;-85
2023/03/16 05:54:21;;;;;;;21.98;20.60;;;;;;;;;;5056729;28;20291;-85
2023/03/16 05:56:49;;;;;;;22.67;21.38;;;;;;;;;;5056212;28;20611;-83
2023/03/16 05:59:17;;;;;;;23.35;21.75;;;;;;;;;;5056263;28;20281;-85
2023/03/16 06:01:45;;;;;;;23.85;22.25;;;;;;;;;;5055833;28;20243;-86
2023/03/16 06:04:12;;;;;;;22.80;21.20;;;;;;;;;;5056273;28;20215;-85
2023/03/16 06:06:39;;;;;;;22.60;20.98;;;;;;;;;;5055803;28;20220;-85
2023/03/16 06:09:06;;;;;;;23.08;21.60;;;;;;;;;;5056007;28;20218;-85
2023/03/16 06:11:33;;;;;;;22.73;21.13;;;;;;;;;;5055934;28;20211;-86
2023/03/16 06:14:02;;;;;;;24.13;22.13;;;;;;;;;;5056233;28;20183;-85
2023/03/16 06:16:29;;;;;;;24.05;21.83;;;;;;;;;;5055821;28;20654;-85
2023/03/16 06:18:56;;;;;;;21.08;19.85;;;;;;;;;;5055188;28;20225;-85
2023/03/16 06:21:23;;;;;;;23.88;22.10;;;;;;;;;;5055220;28;20208;-85
2023/03/16 06:23:50;;;;;;;23.00;21.30;;;;;;;;;;5055201;28;20212;-85
2023/03/16 06:26:17;;;;;;;26.38;21.40;;;;;;;;;;5056135;28;20225;-85
2023/03/16 06:28:44;;;;;;;23.45;21.85;;;;;;;;;;5056517;28;20251;-85
2023/03/16 06:31:13;;;;;;;22.40;21.00;;;;;;;;;;5056173;28;20730;-85
2023/03/16 06:33:40;;;;;;;25.00;23.42;;;;;;;;;;5055591;28;20209;-83
2023/03/16 06:36:07;;;;;;;22.67;21.42;;;;;;;;;;5054465;28;20559;-85
2023/03/16 06:38:34;;;;;;;23.98;22.42;;;;;;;;;;5054932;28;20224;-85
2023/03/16 06:41:01;;;;;;;23.02;21.52;;;;;;;;;;5054972;28;20596;-84
2023/03/16 06:43:28;;;;;;;23.75;22.25;;;;;;;;;;5054652;28;20216;-82
2023/03/16 06:45:56;;;;;;;23.60;21.77;;;;;;;;;;5054210;28;20198;-84
2023/03/16 06:48:24;;;;;;;22.80;21.30;;;;;;;;;;5054533;28;20224;-85
2023/03/16 06:50:51;;;;;;;23.27;21.80;;;;;;;;;;5054764;28;20200;-85
2023/03/16 06:53:18;;;;;;;24.70;22.90;;;;;;;;;;5054661;28;20622;-84
2023/03/16 06:55:45;;;;;;;23.23;21.73;;;;;;;;;;5055931;28;20244;-84
2023/03/16 06:58:12;;;;;;;22.08;20.77;;;;;;;;;;5055092;28;20217;-84
2023/03/16 07:00:39;;;;;;;22.80;21.30;;;;;;;;;;5055361;28;20613;-86
2023/03/16 07:03:06;;;;;;;21.90;20.50;;;;;;;;;;5055736;28;20204;-85
2023/03/16 07:05:35;;;;;;;23.98;22.38;;;;;;;;;;5057885;28;20534;-85
2023/03/16 07:08:03;;;;;;;21.75;20.55;;;;;;;;;;5058513;28;20254;-85
2023/03/16 07:10:30;;;;;;;24.05;21.48;;;;;;;;;;5058799;28;20562;-85
2023/03/16 07:12:57;;;;;;;23.10;21.17;;;;;;;;;;5058969;28;20201;-85
2023/03/16 07:15:25;;;;;;;22.88;21.38;;;;;;;;;;5058266;28;20260;-85
2023/03/16 07:17:52;;;;;;;23.00;21.50;;;;;;;;;;5057942;28;20617;-85
2023/03/16 07:20:20;;;;;;;23.48;21.73;;;;;;;;;;5058335;28;20288;-85
2023/03/16 07:22:48;;;;;;;22.70;21.20;;;;;;;;;;5058674;28;20257;-82
2023/03/16 07:25:16;;;;;;;25.52;23.83;;;;;;;;;;5057678;28;20339;-85
2023/03/16 07:27:44;;;;;;;23.23;21.52;;;;;;;;;;5057461;28;20257;-85
2023/03/16 07:30:13;;;;;;;24.42;22.70;;;;;;;;;;5058266;28;20205;-85
2023/03/16 07:32:41;;;;;;;23.75;22.25;;;;;;;;;;5057997;28;20209;-85
2023/03/16 07:35:08;;;;;;;22.50;21.08;;;;;;;;;;5059658;28;20251;-90
2023/03/16 07:37:35;;;;;;;26.92;23.15;;;;;;;;;;5058146;28;20211;-81
2023/03/16 07:40:05;;;;;;;22.88;21.38;;;;;;;;;;5057624;28;20621;-84
2023/03/16 07:42:34;;;;;;;23.50;22.00;;;;;;;;;;5057598;28;20319;-84
2023/03/16 07:45:01;;;;;;;21.83;20.52;;;;;;;;;;5058608;28;20247;-84
2023/03/16 07:47:29;;;;;;;22.52;21.13;;;;;;;;;;5056572;28;20315;-82
2023/03/16 07:49:56;;;;;;;24.70;22.98;;;;;;;;;;5057393;28;20205;-82
2023/03/16 07:52:23;;;;;;;21.25;20.05;;;;;;;;;;5057143;28;20209;-82
2023/03/16 07:54:50;;;;;;;22.48;20.90;;;;;;;;;;5057128;28;20777;-82
2023/03/16 07:57:19;;;;;;;22.35;20.85;;;;;;;;;;5056958;28;20700;-82
2023/03/16 07:59:46;;;;;;;22.92;21.42;;;;;;;;;;5057270;28;20209;-82
2023/03/16 08:02:14;;;;;;;22.60;21.13;;;;;;;;;;5057591;28;20215;-82
2023/03/16 08:04:41;;;;;;;23.10;21.50;;;;;;;;;;5057046;28;20264;-82
2023/03/16 08:07:08;;;;;;;22.23;20.95;;;;;;;;;;5056706;28;20228;-82
2023/03/16 08:09:35;;;;;;;23.38;21.77;;;;;;;;;;5058143;28;20232;-82
2023/03/16 08:12:03;;;;;;;21.98;20.63;;;;;;;;;;5058332;28;20259;-83
2023/03/16 08:14:33;;;;;;;23.50;21.90;;;;;;;;;;5058100;28;20202;-93
2023/03/16 08:17:00;;;;;;;22.55;20.67;;;;;;;;;;5062324;28;20256;-84
2023/03/16 08:19:27;;;;;;;22.73;21.27;;;;;;;;;;5061693;28;20703;-84
2023/03/16 08:21:55;;;;;;;23.05;21.35;;;;;;;;;;5059724;28;20223;-83
2023/03/16 08:24:22;;;;;;;23.58;21.83;;;;;;;;;;5058403;28;20561;-82
2023/03/16 08:26:49;;;;;;;23.25;21.85;;;;;;;;;;5057816;28;20218;-83
2023/03/16 08:29:17;;;;;;;23.17;21.60;;;;;;;;;;5058073;28;20225;-83
2023/03/16 08:31:45;;;;;;;21.77;20.52;;;;;;;;;;5058648;28;20208;-86
2023/03/16 08:34:14;;;;;;;23.63;21.92;;;;;;;;;;5057732;28;20201;-83
2023/03/16 08:36:42;;;;;;;23.30;21.65;;;;;;;;;;5056820;28;20207;-82
2023/03/16 08:39:09;;;;;;;23.52;21.75;;;;;;;;;;5056802;28;20314;-81
2023/03/16 08:41:39;;;;;;;22.92;21.50;;;;;;;;;;5056813;28;20216;-81
2023/03/16 08:44:06;;;;;;;23.85;22.27;;;;;;;;;;5056501;28;20260;-81
2023/03/16 08:46:34;;;;;;;24.40;22.90;;;;;;;;;;5056294;28;20569;-81
2023/03/16 08:49:03;;;;;;;22.70;21.30;;;;;;;;;;5056979;28;20491;-81
2023/03/16 08:51:31;;;;;;;23.25;21.60;;;;;;;;;;5056633;28;20189;-81
2023/03/16 08:53:58;;;;;;;22.92;21.52;;;;;;;;;;5057037;28;20741;-81
2023/03/16 08:56:26;;;;;;;22.85;21.45;;;;;;;;;;5069327;28;20270;-81
2023/03/16 08:58:53;;;;;;;24.00;22.40;;;;;;;;;;5076338;28;20228;-81
2023/03/16 09:01:21;;;;;;;23.40;22.00;;;;;;;;;;5076383;28;20207;-81
2023/03/16 09:03:48;;;;;;;23.63;21.77;;;;;;;;;;5076456;28;20481;-81
2023/03/16 09:06:17;;;;;;;23.30;21.90;;;;;;;;;;5075914;28;20204;-81
2023/03/16 09:08:46;;;;;;;21.80;20.40;;;;;;;;;;5076034;28;20240;-81
2023/03/16 09:11:14;;;;;;;23.00;21.55;;;;;;;;;;5076386;28;20226;-82
2023/03/16 09:13:41;;;;;;;22.37;20.87;;;;;;;;;;5076793;28;20537;-82
2023/03/16 09:16:09;;;;;;;23.23;21.75;;;;;;;;;;5076662;28;20448;-82
2023/03/16 09:18:36;;;;;;;23.65;21.90;;;;;;;;;;5075982;28;20233;-81
2023/03/16 09:21:04;;;;;;;23.80;22.15;;;;;;;;;;5076340;28;20247;-82
2023/03/16 09:23:33;;;;;;;22.03;20.63;;;;;;;;;;5076220;28;20727;-82
2023/03/16 09:26:02;;;;;;;21.30;20.10;;;;;;;;;;5075457;28;20536;-81
2023/03/16 09:28:30;;;;;;;23.73;22.27;;;;;;;;;;5075722;28;20485;-85
2023/03/16 09:30:57;;;;;;;22.60;21.30;;;;;;;;;;5075450;28;20439;-78
2023/03/16 09:33:25;;;;;;;23.73;22.10;;;;;;;;;;5075318;28;20284;-79
2023/03/16 09:35:52;;;;;;;22.85;20.80;;;;;;;;;;5077961;28;20258;-79
2023/03/16 09:38:20;;;;;;;22.80;21.40;;;;;;;;;;5076129;28;20680;-78
2023/03/16 09:40:49;;;;;;;23.20;21.27;;;;;;;;;;5075670;28;20859;-78
2023/03/16 09:43:22;;;;;;;21.70;20.50;;;;;;;;;;5076359;28;20558;-78
2023/03/16 09:45:51;;;;;;;22.37;20.97;;;;;;;;;;5075714;28;20190;-78
2023/03/16 09:48:19;;;;;;;23.37;21.87;;;;;;;;;;5076089;28;20484;-79
2023/03/16 09:50:47;;;;;;;23.30;21.80;;;;;;;;;;5076534;28;20454;-78
2023/03/16 09:53:18;;;;;;;22.50;21.20;;;;;;;;;;5075661;28;20206;-79
2023/03/16 09:55:47;;;;;;;23.57;22.07;;;;;;;;;;5075550;28;20421;-79
2023/03/16 09:58:17;;;;;;;22.40;21.00;;;;;;;;;;5075216;28;20496;-78
2023/03/16 10:00:49;;;;;;;23.55;21.95;;;;;;;;;;5078713;28;20419;-83
2023/03/16 10:03:24;;;;;;;23.70;22.20;;;;;;;;;;5077736;28;20562;-84
2023/03/16 10:05:56;;;;;;;22.73;21.23;;;;;;;;;;5076794;28;20194;-80
2023/03/16 10:08:24;;;;;;;23.17;21.67;;;;;;;;;;5075829;28;20685;-80
2023/03/16 10:11:11;;;;;;;24.00;22.40;;;;;;;;;;5075503;28;20291;-80
2023/03/16 10:13:42;;;;;;;24.33;22.45;;;;;;;;;;5075186;28;20496;-81
2023/03/16 10:16:11;;;;;;;23.23;21.63;;;;;;;;;;5080102;28;20202;-80
2023/03/16 10:18:42;;;;;;;22.98;21.48;;;;;;;;;;5087295;28;20520;-81
2023/03/16 10:21:12;;;;;;;23.57;21.87;;;;;;;;;;5086888;28;20192;-81
2023/03/16 10:23:40;;;;;;;21.90;20.67;;;;;;;;;;5077995;28;20538;-80
2023/03/16 10:26:12;;;;;;;22.47;21.07;;;;;;;;;;5078023;28;20478;-80
2023/03/16 10:28:41;;;;;;;23.87;22.30;;;;;;;;;;5078140;28;21053;-81
2023/03/16 10:31:10;;;;;;;23.40;21.97;;;;;;;;;;5077215;28;20543;-81
2023/03/16 10:33:38;;;;;;;23.53;22.13;;;;;;;;;;5076210;28;20458;-80
2023/03/16 10:36:10;;;;;;;23.40;21.80;;;;;;;;;;5076138;28;20422;-80
2023/03/16 10:38:42;;;;;;;23.23;21.83;;;;;;;;;;5078230;28;20439;-80
2023/03/16 10:41:20;;;;;;;23.17;21.67;;;;;;;;;;5080779;28;20419;-80
2023/03/16 10:43:50;;;;;;;23.80;22.27;;;;;;;;;;5079065;28;20444;-81
2023/03/16 10:46:17;;;;;;;23.53;22.03;;;;;;;;;;5078916;28;20408;-80
2023/03/16 10:48:53;;;;;;;24.33;22.80;;;;;;;;;;5078487;28;20974;-80
2023/03/16 10:51:24;;;;;;;22.63;21.23;;;;;;;;;;5079366;28;20412;-80
2023/03/16 10:53:51;;;;;;;23.40;21.90;;;;;;;;;;5078608;28;20404;-81
2023/03/16 10:56:21;;;;;;;25.33;23.47;;;;;;;;;;5079311;28;20514;-80
2023/03/16 10:58:50;;;;;;;24.27;22.70;;;;;;;;;;5078222;28;20537;-80
2023/03/16 11:01:19;;;;;;;22.83;21.43;;;;;;;;;;5078511;28;20469;-81
2023/03/16 11:03:49;;;;;;;22.23;21.00;;;;;;;;;;5077608;28;20428;-81
2023/03/16 11:06:20;;;;;;;22.70;21.30;;;;;;;;;;5076385;28;20481;-81
2023/03/16 11:08:47;;;;;;;23.50;21.87;;;;;;;;;;5076267;28;20492;-81
2023/03/16 11:11:16;;;;;;;23.53;22.20;;;;;;;;;;5076980;28;20447;-80
2023/03/16 11:13:44;;;;;;;23.30;21.90;;;;;;;;;;5077092;28;20429;-80
2023/03/16 11:16:21;;;;;;;22.17;20.87;;;;;;;;;;5076335;28;20750;-80
2023/03/16 11:18:52;;;;;;;24.03;22.63;;;;;;;;;;5076997;28;20463;-81
2023/03/16 11:21:24;;;;;;;23.20;21.80;;;;;;;;;;5076874;28;20408;-80
2023/03/16 11:23:55;;;;;;;23.43;21.93;;;;;;;;;;5076361;28;20444;-80
2023/03/16 11:26:26;;;;;;;23.37;21.97;;;;;;;;;;5076258;28;20458;-79
2023/03/16 11:29:00;;;;;;;23.00;21.70;;;;;;;;;;5074875;28;20860;-80
2023/03/16 11:31:34;;;;;;;22.53;21.23;;;;;;;;;;5076478;28;20448;-81
2023/03/16 11:34:01;;;;;;;24.60;22.90;;;;;;;;;;5070663;28;20417;-80
2023/03/16 11:36:36;;;;;;;22.47;21.20;;;;;;;;;;5056142;28;20445;-81
2023/03/16 11:39:07;;;;;;;24.17;22.47;;;;;;;;;;5057562;28;20444;-81
2023/03/16 11:41:39;;;;;;;23.27;21.70;;;;;;;;;;5056721;28;20475;-80
2023/03/16 11:44:10;;;;;;;22.40;21.00;;;;;;;;;;5056486;28;20485;-80
2023/03/16 11:46:42;;;;;;;22.57;21.27;;;;;;;;;;5055231;28;21036;-80
2023/03/16 11:49:15;;;;;;;23.53;22.17;;;;;;;;;;5056267;28;20543;-81
2023/03/16 11:51:44;;;;;;;22.90;21.37;;;;;;;;;;5055904;28;20409;-80
2023/03/16 11:54:18;;;;;;;22.77;21.47;;;;;;;;;;5056732;28;20956;-80
2023/03/16 11:56:48;;;;;;;22.80;21.50;;;;;;;;;;5056560;28;20413;-79
2023/03/16 11:59:22;;;;;;;23.20;21.80;;;;;;;;;;5054575;28;20520;-80
2023/03/16 12:01:56;;;;;;;23.73;22.33;;;;;;;;;;5056336;28;20455;-81
2023/03/16 12:04:30;;;;;;;23.60;22.30;;;;;;;;;;5056746;28;20465;-81
2023/03/16 12:07:02;;;;;;;23.83;22.17;;;;;;;;;;5055726;28;20432;-80
2023/03/16 12:09:50;;;;;;;23.87;22.47;;;;;;;;;;5055744;28;20476;-80
2023/03/16 12:12:23;;;;;;;23.53;22.23;;;;;;;;;;5056674;28;20485;-79
2023/03/16 12:14:54;;;;;;;23.80;22.30;;;;;;;;;;5056531;28;20435;-79
2023/03/16 12:17:25;;;;;;;22.87;21.47;;;;;;;;;;5056109;28;20420;-79
2023/03/16 12:19:53;;;;;;;23.17;21.77;;;;;;;;;;5056510;28;20471;-80
2023/03/16 12:22:22;;;;;;;23.00;21.60;;;;;;;;;;5056257;28;20533;-80
2023/03/16 12:24:49;;;;;;;22.73;21.53;;;;;;;;;;5056154;28;20486;-80
2023/03/16 12:27:18;;;;;;;24.17;22.77;;;;;;;;;;5056315;28;20509;-80
2023/03/16 12:29:54;;;;;;;23.73;22.40;;;;;;;;;;5055737;28;20536;-80
2023/03/16 12:32:27;;;;;;;23.43;22.13;;;;;;;;;;5056381;28;20522;-80
2023/03/16 12:34:56;;;;;;;24.33;22.80;;;;;;;;;;5056055;28;20448;-84
2023/03/16 12:37:28;;;;;;;23.40;21.93;;;;;;;;;;5056174;28;20913;-83
2023/03/16 12:40:21;;;;;;;22.83;21.43;;;;;;;;;;5056002;28;20425;-84
2023/03/16 12:42:54;;;;;;;22.50;21.17;;;;;;;;;;5042389;28;20545;-83
2023/03/16 12:45:28;;;;;;;23.87;22.47;;;;;;;;;;5055692;28;20410;-77
2023/03/16 12:47:58;;;;;;;22.60;21.20;;;;;;;;;;5053430;28;20477;-76
2023/03/16 12:50:26;;;;;;;22.70;21.30;;;;;;;;;;5054919;28;20861;-77
2023/03/16 12:52:53;;;;;;;21.70;20.40;;;;;;;;;;5054620;28;20913;-77
2023/03/16 12:55:26;;;;;;;23.07;21.70;;;;;;;;;;5055036;28;20463;-80
2023/03/16 12:57:59;;;;;;;22.57;21.30;;;;;;;;;;5055994;28;20957;-80
2023/03/16 13:00:34;;;;;;;22.47;21.13;;;;;;;;;;5054501;28;21018;-80
2023/03/16 13:03:03;;;;;;;22.87;21.57;;;;;;;;;;5055145;28;20533;-80
2023/03/16 13:05:31;;;;;;;22.63;21.03;;;;;;;;;;5056502;28;20454;-79
2023/03/16 13:08:06;;;;;;;23.20;21.63;;;;;;;;;;5056537;28;20478;-83
2023/03/16 13:10:33;;;;;;;22.87;21.50;;;;;;;;;;5056378;28;20473;-84
2023/03/16 13:13:10;;;;;;;23.73;22.33;;;;;;;;;;5055422;28;20437;-84
2023/03/16 13:15:37;;;;;;;22.90;21.50;;;;;;;;;;5055044;28;20433;-84
2023/03/16 13:18:20;;;;;;;23.27;21.70;;;;;;;;;;5055792;28;20445;-85
2023/03/16 13:20:52;;;;;;;23.33;21.93;;;;;;;;;;5055361;28;20865;-84
2023/03/16 13:23:22;;;;;;;24.03;22.63;;;;;;;;;;5054154;28;20860;-84
2023/03/16 13:25:59;;;;;;;22.87;21.57;;;;;;;;;;5054816;28;20470;-80
2023/03/16 13:28:28;;;;;;;22.70;21.40;;;;;;;;;;5056342;28;20482;-78
2023/03/16 13:30:55;;;;;;;23.20;21.80;;;;;;;;;;5055629;28;20425;-81
2023/03/16 13:33:27;;;;;;;23.50;22.10;;;;;;;;;;5055151;28;20447;-81
2023/03/16 13:35:54;;;;;;;23.47;21.97;;;;;;;;;;5054560;28;20454;-82
2023/03/16 13:38:26;;;;;;;22.97;21.60;;;;;;;;;;5054633;28;20470;-82
2023/03/16 13:40:55;;;;;;;23.83;22.37;;;;;;;;;;5055194;28;20428;-82
2023/03/16 13:43:23;;;;;;;23.73;22.23;;;;;;;;;;5054993;28;20525;-81
2023/03/16 13:45:50;;;;;;;23.70;22.00;;;;;;;;;;5054320;28;20767;-81
2023/03/16 13:48:18;;;;;;;23.67;22.23;;;;;;;;;;5054854;28;20472;-81
2023/03/16 13:50:51;;;;;;;23.50;21.83;;;;;;;;;;5055050;28;20455;-81
2023/03/16 13:53:21;;;;;;;23.00;21.50;;;;;;;;;;5054890;28;20410;-81
2023/03/16 13:55:49;;;;;;;23.53;22.13;;;;;;;;;;5053925;28;20820;-81
2023/03/16 13:58:20;;;;;;;23.53;22.03;;;;;;;;;;5053930;28;20490;-82
2023/03/16 14:00:47;;;;;;;23.13;21.63;;;;;;;;;;5054990;28;20479;-81
2023/03/16 14:03:16;;;;;;;23.97;22.47;;;;;;;;;;5054924;28;20425;-81
2023/03/16 14:05:44;;;;;;;22.60;21.30;;;;;;;;;;5054414;28;20456;-81
2023/03/16 14:08:19;;;;;;;25.13;23.47;;;;;;;;;;5054755;28;20600;-81
2023/03/16 14:10:47;;;;;;;23.87;22.27;;;;;;;;;;5055062;28;20446;-81
2023/03/16 14:13:24;;;;;;;22.23;20.93;;;;;;;;;;5055736;28;20443;-81
2023/03/16 14:15:52;;;;;;;23.00;21.60;;;;;;;;;;5058426;28;20425;-81
2023/03/16 14:18:21;;;;;;;22.43;21.13;;;;;;;;;;5058363;28;20961;-82
2023/03/16 14:20:48;;;;;;;23.17;21.77;;;;;;;;;;5058867;28;20484;-81
2023/03/16 14:23:21;;;;;;;22.77;21.47;;;;;;;;;;5058587;28;20912;-80
2023/03/16 14:25:48;;;;;;;22.50;21.20;;;;;;;;;;5058141;28;20455;-81